sensor_id;sensor_type;location;lat;lon;timestamp;pressure;altitude;pressure_sealevel;temperature;humidity
80424;BME280;69765;47.668;19.326;2023-11-19T00:00:19;99705.41;;;1.78;79.97
80424;BME280;69765;47.668;19.326;2023-11-19T00:03:21;99711.81;;;1.68;81.94
80424;BME280;69765;47.668;19.326;2023-11-19T00:06:24;99715.00;;;1.74;82.63
80424;BME280;69765;47.668;19.326;2023-11-19T00:09:27;99711.88;;;1.84;81.81
80424;BME280;69765;47.668;19.326;2023-11-19T00:12:29;99703.72;;;1.86;81.29
80424;BME280;69765;47.668;19.326;2023-11-19T00:15:32;99699.91;;;1.90;81.44
80424;BME280;69765;47.668;19.326;2023-11-19T00:18:34;99703.22;;;1.97;82.37
80424;BME280;69765;47.668;19.326;2023-11-19T00:21:36;99706.53;;;2.12;81.60
80424;BME280;69765;47.668;19.326;2023-11-19T00:24:38;99692.41;;;1.98;81.80
80424;BME280;69765;47.668;19.326;2023-11-19T00:27:41;99690.63;;;2.13;81.56
80424;BME280;69765;47.668;19.326;2023-11-19T00:30:46;99699.41;;;1.85;82.05
80424;BME280;69765;47.668;19.326;2023-11-19T00:33:48;99699.09;;;1.98;81.98
80424;BME280;69765;47.668;19.326;2023-11-19T00:36:51;99708.28;;;1.97;82.00
80424;BME280;69765;47.668;19.326;2023-11-19T00:39:54;99694.19;;;1.99;79.90
80424;BME280;69765;47.668;19.326;2023-11-19T00:42:58;99700.81;;;1.67;80.82
80424;BME280;69765;47.668;19.326;2023-11-19T00:46:03;99697.19;;;1.88;81.35
80424;BME280;69765;47.668;19.326;2023-11-19T00:49:07;99689.69;;;1.81;81.59
80424;BME280;69765;47.668;19.326;2023-11-19T00:52:09;99689.06;;;1.91;82.24
80424;BME280;69765;47.668;19.326;2023-11-19T00:55:11;99686.47;;;1.98;81.51
80424;BME280;69765;47.668;19.326;2023-11-19T00:58:15;99694.91;;;1.83;81.03
80424;BME280;69765;47.668;19.326;2023-11-19T01:01:17;99695.72;;;1.74;81.07
80424;BME280;69765;47.668;19.326;2023-11-19T01:04:20;99693.69;;;1.79;80.83
80424;BME280;69765;47.668;19.326;2023-11-19T01:07:22;99680.00;;;1.77;81.54
80424;BME280;69765;47.668;19.326;2023-11-19T01:10:26;99661.19;;;1.82;81.35
80424;BME280;69765;47.668;19.326;2023-11-19T01:13:28;99680.13;;;1.63;79.27
80424;BME280;69765;47.668;19.326;2023-11-19T01:16:31;99686.31;;;1.58;78.68
80424;BME280;69765;47.668;19.326;2023-11-19T01:19:34;99681.00;;;1.47;80.54
80424;BME280;69765;47.668;19.326;2023-11-19T01:22:36;99695.28;;;1.40;80.69
80424;BME280;69765;47.668;19.326;2023-11-19T01:25:39;99681.72;;;1.23;82.40
80424;BME280;69765;47.668;19.326;2023-11-19T01:28:41;99684.78;;;1.21;80.80
80424;BME280;69765;47.668;19.326;2023-11-19T01:31:49;99688.69;;;1.33;79.43
80424;BME280;69765;47.668;19.326;2023-11-19T01:34:55;99687.06;;;1.34;80.28
80424;BME280;69765;47.668;19.326;2023-11-19T01:37:57;99687.91;;;1.18;80.19
80424;BME280;69765;47.668;19.326;2023-11-19T01:40:59;99689.59;;;0.73;81.83
80424;BME280;69765;47.668;19.326;2023-11-19T01:44:02;99692.69;;;0.71;83.38
80424;BME280;69765;47.668;19.326;2023-11-19T01:47:04;99690.78;;;0.91;84.13
80424;BME280;69765;47.668;19.326;2023-11-19T01:50:07;99682.06;;;1.04;81.01
80424;BME280;69765;47.668;19.326;2023-11-19T01:53:11;99678.69;;;0.96;81.02
80424;BME280;69765;47.668;19.326;2023-11-19T01:56:14;99668.63;;;0.89;82.86
80424;BME280;69765;47.668;19.326;2023-11-19T01:59:18;99664.31;;;0.88;81.13
80424;BME280;69765;47.668;19.326;2023-11-19T02:02:22;99648.03;;;0.70;82.12
80424;BME280;69765;47.668;19.326;2023-11-19T02:05:25;99642.19;;;0.85;81.59
80424;BME280;69765;47.668;19.326;2023-11-19T02:08:29;99647.25;;;0.78;81.06
80424;BME280;69765;47.668;19.326;2023-11-19T02:11:32;99649.78;;;0.78;81.35
80424;BME280;69765;47.668;19.326;2023-11-19T02:14:35;99649.94;;;0.80;81.42
80424;BME280;69765;47.668;19.326;2023-11-19T02:17:37;99645.91;;;0.89;81.14
80424;BME280;69765;47.668;19.326;2023-11-19T02:20:40;99651.31;;;0.92;81.16
80424;BME280;69765;47.668;19.326;2023-11-19T02:23:42;99649.75;;;0.85;80.57
80424;BME280;69765;47.668;19.326;2023-11-19T02:26:57;99649.06;;;0.49;82.99
80424;BME280;69765;47.668;19.326;2023-11-19T02:30:01;99644.09;;;0.65;82.63
80424;BME280;69765;47.668;19.326;2023-11-19T02:33:05;99629.94;;;0.51;84.51
80424;BME280;69765;47.668;19.326;2023-11-19T02:36:08;99625.47;;;0.79;84.40
80424;BME280;69765;47.668;19.326;2023-11-19T02:39:11;99637.75;;;0.75;82.00
80424;BME280;69765;47.668;19.326;2023-11-19T02:42:14;99634.38;;;0.68;81.99
80424;BME280;69765;47.668;19.326;2023-11-19T02:45:18;99622.28;;;0.72;81.16
80424;BME280;69765;47.668;19.326;2023-11-19T02:48:21;99619.84;;;0.58;79.94
80424;BME280;69765;47.668;19.326;2023-11-19T02:51:23;99606.66;;;0.61;80.97
80424;BME280;69765;47.668;19.326;2023-11-19T02:54:26;99605.75;;;0.67;80.94
80424;BME280;69765;47.668;19.326;2023-11-19T02:57:32;99591.22;;;0.58;82.41
80424;BME280;69765;47.668;19.326;2023-11-19T03:00:34;99599.63;;;0.65;81.03
80424;BME280;69765;47.668;19.326;2023-11-19T03:03:39;99602.84;;;0.41;83.67
80424;BME280;69765;47.668;19.326;2023-11-19T03:06:42;99595.50;;;0.36;82.42
80424;BME280;69765;47.668;19.326;2023-11-19T03:09:45;99584.81;;;0.45;80.90
80424;BME280;69765;47.668;19.326;2023-11-19T03:12:47;99589.25;;;0.55;80.47
80424;BME280;69765;47.668;19.326;2023-11-19T03:15:49;99594.13;;;0.54;78.90
80424;BME280;69765;47.668;19.326;2023-11-19T03:18:51;99595.91;;;0.55;79.47
80424;BME280;69765;47.668;19.326;2023-11-19T03:21:54;99598.28;;;0.53;78.42
80424;BME280;69765;47.668;19.326;2023-11-19T03:24:56;99588.81;;;0.36;78.52
80424;BME280;69765;47.668;19.326;2023-11-19T03:28:00;99575.69;;;0.39;80.96
80424;BME280;69765;47.668;19.326;2023-11-19T03:31:06;99576.97;;;0.28;80.63
80424;BME280;69765;47.668;19.326;2023-11-19T03:34:11;99584.28;;;0.41;81.63
80424;BME280;69765;47.668;19.326;2023-11-19T03:37:14;99598.28;;;0.53;81.84
80424;BME280;69765;47.668;19.326;2023-11-19T03:40:19;99572.88;;;0.51;81.04
80424;BME280;69765;47.668;19.326;2023-11-19T03:43:22;99573.31;;;0.10;81.83
80424;BME280;69765;47.668;19.326;2023-11-19T03:46:24;99569.94;;;0.33;82.62
80424;BME280;69765;47.668;19.326;2023-11-19T03:49:27;99548.19;;;0.33;82.12
80424;BME280;69765;47.668;19.326;2023-11-19T03:52:30;99544.16;;;0.42;81.43
80424;BME280;69765;47.668;19.326;2023-11-19T03:55:32;99536.28;;;0.39;81.50
80424;BME280;69765;47.668;19.326;2023-11-19T03:58:35;99536.69;;;0.28;80.52
80424;BME280;69765;47.668;19.326;2023-11-19T04:01:37;99537.16;;;0.40;80.32
80424;BME280;69765;47.668;19.326;2023-11-19T04:04:40;99534.72;;;0.25;79.39
80424;BME280;69765;47.668;19.326;2023-11-19T04:07:42;99522.81;;;0.32;79.86
80424;BME280;69765;47.668;19.326;2023-11-19T04:10:45;99518.25;;;0.13;79.17
80424;BME280;69765;47.668;19.326;2023-11-19T04:13:47;99509.94;;;0.21;80.89
80424;BME280;69765;47.668;19.326;2023-11-19T04:16:49;99502.50;;;0.30;82.54
80424;BME280;69765;47.668;19.326;2023-11-19T04:19:53;99505.88;;;0.38;82.62
80424;BME280;69765;47.668;19.326;2023-11-19T04:22:56;99509.84;;;0.36;82.94
80424;BME280;69765;47.668;19.326;2023-11-19T04:25:58;99509.84;;;0.36;81.90
80424;BME280;69765;47.668;19.326;2023-11-19T04:29:13;99501.75;;;0.31;82.34
80424;BME280;69765;47.668;19.326;2023-11-19T04:32:16;99489.94;;;0.46;82.69
80424;BME280;69765;47.668;19.326;2023-11-19T04:35:20;99487.00;;;0.57;81.37
80424;BME280;69765;47.668;19.326;2023-11-19T04:38:23;99497.63;;;0.32;82.72
80424;BME280;69765;47.668;19.326;2023-11-19T04:41:26;99510.31;;;0.17;81.37
80424;BME280;69765;47.668;19.326;2023-11-19T04:44:29;99515.22;;;0.39;81.09
80424;BME280;69765;47.668;19.326;2023-11-19T04:47:38;99513.31;;;0.29;80.53
80424;BME280;69765;47.668;19.326;2023-11-19T04:50:41;99527.78;;;0.16;80.78
80424;BME280;69765;47.668;19.326;2023-11-19T04:53:43;99521.41;;;0.27;81.38
80424;BME280;69765;47.668;19.326;2023-11-19T04:56:45;99517.34;;;0.43;82.54
80424;BME280;69765;47.668;19.326;2023-11-19T04:59:49;99532.13;;;0.40;85.44
80424;BME280;69765;47.668;19.326;2023-11-19T05:02:51;99522.47;;;0.51;85.52
80424;BME280;69765;47.668;19.326;2023-11-19T05:05:54;99517.25;;;0.57;85.25
80424;BME280;69765;47.668;19.326;2023-11-19T05:08:58;99506.66;;;0.75;84.03
80424;BME280;69765;47.668;19.326;2023-11-19T05:12:00;99512.09;;;0.71;83.35
80424;BME280;69765;47.668;19.326;2023-11-19T05:15:05;99527.72;;;0.76;83.69
80424;BME280;69765;47.668;19.326;2023-11-19T05:18:08;99528.53;;;0.84;84.06
80424;BME280;69765;47.668;19.326;2023-11-19T05:21:11;99529.91;;;0.73;84.96
80424;BME280;69765;47.668;19.326;2023-11-19T05:24:14;99520.47;;;0.56;86.23
80424;BME280;69765;47.668;19.326;2023-11-19T05:27:16;99515.31;;;0.70;86.37
80424;BME280;69765;47.668;19.326;2023-11-19T05:30:20;99523.44;;;0.91;84.36
80424;BME280;69765;47.668;19.326;2023-11-19T05:33:24;99524.84;;;0.96;84.34
80424;BME280;69765;47.668;19.326;2023-11-19T05:36:27;99516.00;;;0.99;82.93
80424;BME280;69765;47.668;19.326;2023-11-19T05:39:31;99520.59;;;0.88;83.11
80424;BME280;69765;47.668;19.326;2023-11-19T05:42:33;99531.63;;;0.81;83.08
80424;BME280;69765;47.668;19.326;2023-11-19T05:45:36;99530.28;;;0.69;84.25
80424;BME280;69765;47.668;19.326;2023-11-19T05:48:38;99535.66;;;0.72;85.26
80424;BME280;69765;47.668;19.326;2023-11-19T05:51:40;99523.56;;;0.76;83.09
80424;BME280;69765;47.668;19.326;2023-11-19T05:54:43;99515.28;;;0.77;83.75
80424;BME280;69765;47.668;19.326;2023-11-19T05:57:48;99521.94;;;0.77;84.52
80424;BME280;69765;47.668;19.326;2023-11-19T06:00:50;99533.47;;;0.75;83.43
80424;BME280;69765;47.668;19.326;2023-11-19T06:03:53;99530.44;;;0.70;83.86
80424;BME280;69765;47.668;19.326;2023-11-19T06:06:55;99522.84;;;0.77;84.08
80424;BME280;69765;47.668;19.326;2023-11-19T06:09:59;99517.91;;;0.86;82.64
80424;BME280;69765;47.668;19.326;2023-11-19T06:13:01;99509.84;;;0.82;83.36
80424;BME280;69765;47.668;19.326;2023-11-19T06:16:07;99500.50;;;0.81;83.40
80424;BME280;69765;47.668;19.326;2023-11-19T06:19:17;99501.50;;;0.90;83.52
80424;BME280;69765;47.668;19.326;2023-11-19T06:22:19;99496.25;;;0.88;84.53
80424;BME280;69765;47.668;19.326;2023-11-19T06:25:24;99490.44;;;0.96;84.49
80424;BME280;69765;47.668;19.326;2023-11-19T06:28:34;99489.88;;;1.15;83.90
80424;BME280;69765;47.668;19.326;2023-11-19T06:31:40;99497.84;;;1.11;84.18
80424;BME280;69765;47.668;19.326;2023-11-19T06:34:43;99488.50;;;1.10;85.03
80424;BME280;69765;47.668;19.326;2023-11-19T06:37:46;99485.72;;;1.15;84.02
80424;BME280;69765;47.668;19.326;2023-11-19T06:40:48;99479.13;;;1.40;82.97
80424;BME280;69765;47.668;19.326;2023-11-19T06:43:55;99483.72;;;1.51;82.57
80424;BME280;69765;47.668;19.326;2023-11-19T06:46:57;99478.56;;;1.59;82.62
80424;BME280;69765;47.668;19.326;2023-11-19T06:50:00;99488.25;;;1.63;83.60
80424;BME280;69765;47.668;19.326;2023-11-19T06:53:02;99486.53;;;1.70;82.75
80424;BME280;69765;47.668;19.326;2023-11-19T06:56:04;99471.44;;;1.95;81.83
80424;BME280;69765;47.668;19.326;2023-11-19T06:59:09;99457.16;;;2.20;81.24
80424;BME280;69765;47.668;19.326;2023-11-19T07:02:11;99462.75;;;2.33;79.69
80424;BME280;69765;47.668;19.326;2023-11-19T07:05:14;99456.91;;;2.59;78.01
80424;BME280;69765;47.668;19.326;2023-11-19T07:08:16;99457.38;;;3.14;76.24
80424;BME280;69765;47.668;19.326;2023-11-19T07:11:19;99462.19;;;3.54;74.40
80424;BME280;69765;47.668;19.326;2023-11-19T07:14:21;99461.56;;;4.00;73.07
80424;BME280;69765;47.668;19.326;2023-11-19T07:17:25;99456.25;;;4.42;71.89
80424;BME280;69765;47.668;19.326;2023-11-19T07:20:28;99460.44;;;4.32;71.99
80424;BME280;69765;47.668;19.326;2023-11-19T07:23:30;99474.72;;;3.87;73.82
80424;BME280;69765;47.668;19.326;2023-11-19T07:26:33;99470.06;;;3.57;75.91
80424;BME280;69765;47.668;19.326;2023-11-19T07:29:35;99466.19;;;3.26;77.73
80424;BME280;69765;47.668;19.326;2023-11-19T07:32:40;99470.00;;;3.05;78.21
80424;BME280;69765;47.668;19.326;2023-11-19T07:35:42;99463.47;;;3.07;79.02
80424;BME280;69765;47.668;19.326;2023-11-19T07:38:46;99461.16;;;2.84;79.00
80424;BME280;69765;47.668;19.326;2023-11-19T07:41:49;99470.91;;;2.97;79.89
80424;BME280;69765;47.668;19.326;2023-11-19T07:44:51;99473.53;;;2.90;81.02
80424;BME280;69765;47.668;19.326;2023-11-19T07:47:56;99479.19;;;2.87;79.03
80424;BME280;69765;47.668;19.326;2023-11-19T07:50:58;99481.72;;;2.87;78.68
80424;BME280;69765;47.668;19.326;2023-11-19T07:54:01;99470.00;;;3.05;79.82
80424;BME280;69765;47.668;19.326;2023-11-19T07:57:03;99462.69;;;2.99;78.87
80424;BME280;69765;47.668;19.326;2023-11-19T08:00:06;99456.75;;;2.99;79.04
80424;BME280;69765;47.668;19.326;2023-11-19T08:03:14;99446.59;;;2.90;79.45
80424;BME280;69765;47.668;19.326;2023-11-19T08:06:17;99442.03;;;3.03;79.04
80424;BME280;69765;47.668;19.326;2023-11-19T08:09:19;99428.78;;;2.97;79.45
80424;BME280;69765;47.668;19.326;2023-11-19T08:12:22;99413.16;;;3.10;79.85
80424;BME280;69765;47.668;19.326;2023-11-19T08:15:25;99404.09;;;3.12;79.75
80424;BME280;69765;47.668;19.326;2023-11-19T08:18:30;99403.47;;;3.15;79.42
80424;BME280;69765;47.668;19.326;2023-11-19T08:21:32;99393.34;;;3.15;79.95
80424;BME280;69765;47.668;19.326;2023-11-19T08:24:35;99397.84;;;3.26;81.58
80424;BME280;69765;47.668;19.326;2023-11-19T08:27:37;99376.53;;;3.41;80.16
80424;BME280;69765;47.668;19.326;2023-11-19T08:30:39;99366.59;;;3.34;79.94
80424;BME280;69765;47.668;19.326;2023-11-19T08:33:42;99368.06;;;3.32;79.57
80424;BME280;69765;47.668;19.326;2023-11-19T08:36:45;99344.38;;;3.49;79.78
80424;BME280;69765;47.668;19.326;2023-11-19T08:39:48;99387.56;;;3.68;79.22
80424;BME280;69765;47.668;19.326;2023-11-19T08:42:50;99424.03;;;3.78;80.42
80424;BME280;69765;47.668;19.326;2023-11-19T08:45:53;99400.78;;;3.82;78.12
80424;BME280;69765;47.668;19.326;2023-11-19T08:48:55;99405.25;;;3.76;76.79
80424;BME280;69765;47.668;19.326;2023-11-19T08:51:59;99388.28;;;3.75;77.41
80424;BME280;69765;47.668;19.326;2023-11-19T08:55:02;99397.19;;;3.89;77.38
80424;BME280;69765;47.668;19.326;2023-11-19T08:58:05;99391.25;;;3.80;76.91
80424;BME280;69765;47.668;19.326;2023-11-19T09:01:08;99401.25;;;3.78;78.00
80424;BME280;69765;47.668;19.326;2023-11-19T09:04:11;99377.44;;;3.68;77.33
80424;BME280;69765;47.668;19.326;2023-11-19T09:07:14;99389.91;;;3.75;77.45
80424;BME280;69765;47.668;19.326;2023-11-19T09:10:16;99399.91;;;3.73;77.33
80424;BME280;69765;47.668;19.326;2023-11-19T09:13:19;99398.41;;;3.75;78.38
80424;BME280;69765;47.668;19.326;2023-11-19T09:16:21;99407.19;;;3.70;77.47
80424;BME280;69765;47.668;19.326;2023-11-19T09:19:24;99404.97;;;3.56;79.18
80424;BME280;69765;47.668;19.326;2023-11-19T09:22:26;99409.47;;;3.58;78.99
80424;BME280;69765;47.668;19.326;2023-11-19T09:25:29;99418.97;;;3.70;78.89
80424;BME280;69765;47.668;19.326;2023-11-19T09:28:46;99395.59;;;3.46;78.94
80424;BME280;69765;47.668;19.326;2023-11-19T09:31:49;99399.50;;;3.25;80.36
80424;BME280;69765;47.668;19.326;2023-11-19T09:34:51;99402.28;;;3.20;80.03
80424;BME280;69765;47.668;19.326;2023-11-19T09:37:53;99388.91;;;3.29;79.69
80424;BME280;69765;47.668;19.326;2023-11-19T09:40:56;99392.19;;;3.37;80.70
80424;BME280;69765;47.668;19.326;2023-11-19T09:44:00;99385.47;;;3.64;80.55
80424;BME280;69765;47.668;19.326;2023-11-19T09:47:03;99390.09;;;3.59;78.77
80424;BME280;69765;47.668;19.326;2023-11-19T09:50:06;99375.66;;;3.41;79.20
80424;BME280;69765;47.668;19.326;2023-11-19T09:53:09;99363.13;;;3.51;79.96
80424;BME280;69765;47.668;19.326;2023-11-19T09:56:12;99361.94;;;3.65;79.45
80424;BME280;69765;47.668;19.326;2023-11-19T09:59:17;99342.88;;;3.51;78.91
80424;BME280;69765;47.668;19.326;2023-11-19T10:02:21;99346.59;;;3.63;78.58
80424;BME280;69765;47.668;19.326;2023-11-19T10:05:25;99335.72;;;3.64;79.12
80424;BME280;69765;47.668;19.326;2023-11-19T10:08:29;99347.75;;;3.75;78.65
80424;BME280;69765;47.668;19.326;2023-11-19T10:11:31;99341.34;;;3.79;78.58
80424;BME280;69765;47.668;19.326;2023-11-19T10:14:35;99331.66;;;3.75;78.59
80424;BME280;69765;47.668;19.326;2023-11-19T10:17:41;99340.13;;;3.75;79.34
80424;BME280;69765;47.668;19.326;2023-11-19T10:20:43;99336.06;;;3.95;77.95
80424;BME280;69765;47.668;19.326;2023-11-19T10:23:51;99326.22;;;3.98;78.81
80424;BME280;69765;47.668;19.326;2023-11-19T10:26:56;99333.03;;;4.07;76.94
80424;BME280;69765;47.668;19.326;2023-11-19T10:29:59;99335.34;;;4.23;77.12
80424;BME280;69765;47.668;19.326;2023-11-19T10:36:08;99335.69;;;4.18;76.43
80424;BME280;69765;47.668;19.326;2023-11-19T10:39:11;99333.38;;;4.02;76.54
80424;BME280;69765;47.668;19.326;2023-11-19T10:42:15;99330.88;;;3.84;77.36
80424;BME280;69765;47.668;19.326;2023-11-19T10:45:23;99324.88;;;4.01;78.28
80424;BME280;69765;47.668;19.326;2023-11-19T10:48:27;99333.16;;;4.09;77.74
80424;BME280;69765;47.668;19.326;2023-11-19T10:51:31;99328.28;;;4.10;77.10
80424;BME280;69765;47.668;19.326;2023-11-19T10:54:34;99326.44;;;4.18;76.78
80424;BME280;69765;47.668;19.326;2023-11-19T10:57:39;99309.03;;;4.04;77.35
80424;BME280;69765;47.668;19.326;2023-11-19T11:00:48;99292.25;;;3.96;76.84
80424;BME280;69765;47.668;19.326;2023-11-19T11:03:52;99298.53;;;3.91;79.16
80424;BME280;69765;47.668;19.326;2023-11-19T11:06:58;99288.84;;;3.95;76.98
80424;BME280;69765;47.668;19.326;2023-11-19T11:10:01;99282.84;;;3.95;77.75
80424;BME280;69765;47.668;19.326;2023-11-19T11:13:05;99270.69;;;3.82;78.02
80424;BME280;69765;47.668;19.326;2023-11-19T11:16:08;99268.81;;;3.98;77.90
80424;BME280;69765;47.668;19.326;2023-11-19T11:19:11;99269.69;;;4.07;78.37
80424;BME280;69765;47.668;19.326;2023-11-19T11:22:16;99267.19;;;3.99;77.74
80424;BME280;69765;47.668;19.326;2023-11-19T11:26:06;99263.16;;;4.01;77.27
80424;BME280;69765;47.668;19.326;2023-11-19T11:36:20;99270.41;;;4.15;76.49
80424;BME280;69765;47.668;19.326;2023-11-19T11:39:24;99258.41;;;4.23;76.68
80424;BME280;69765;47.668;19.326;2023-11-19T11:45:39;99234.88;;;4.24;75.64
80424;BME280;69765;47.668;19.326;2023-11-19T11:48:47;99236.47;;;4.23;75.49
80424;BME280;69765;47.668;19.326;2023-11-19T11:55:04;99225.63;;;4.24;76.11
80424;BME280;69765;47.668;19.326;2023-11-19T11:58:06;99217.44;;;4.37;77.71
80424;BME280;69765;47.668;19.326;2023-11-19T12:01:14;99208.69;;;4.33;77.63
80424;BME280;69765;47.668;19.326;2023-11-19T12:04:26;99203.34;;;4.30;78.90
80424;BME280;69765;47.668;19.326;2023-11-19T12:07:28;99187.31;;;4.40;78.25
80424;BME280;69765;47.668;19.326;2023-11-19T12:10:32;99182.31;;;4.50;77.18
80424;BME280;69765;47.668;19.326;2023-11-19T12:13:57;99175.16;;;4.46;76.04
80424;BME280;69765;47.668;19.326;2023-11-19T12:20:36;99177.16;;;4.40;76.60
80424;BME280;69765;47.668;19.326;2023-11-19T12:23:49;99180.94;;;4.35;76.26
80424;BME280;69765;47.668;19.326;2023-11-19T12:26:52;99175.16;;;4.65;77.91
80424;BME280;69765;47.668;19.326;2023-11-19T12:29:56;99170.44;;;4.59;77.37
80424;BME280;69765;47.668;19.326;2023-11-19T12:32:59;99171.34;;;4.60;78.60
80424;BME280;69765;47.668;19.326;2023-11-19T12:36:01;99156.94;;;4.69;79.11
80424;BME280;69765;47.668;19.326;2023-11-19T12:39:07;99153.09;;;4.64;78.28
80424;BME280;69765;47.668;19.326;2023-11-19T12:42:09;99149.91;;;4.56;77.71
80424;BME280;69765;47.668;19.326;2023-11-19T12:45:14;99138.22;;;4.58;77.38
80424;BME280;69765;47.668;19.326;2023-11-19T12:48:18;99132.53;;;4.61;77.07
80424;BME280;69765;47.668;19.326;2023-11-19T12:51:20;99111.50;;;4.62;76.77
80424;BME280;69765;47.668;19.326;2023-11-19T12:54:33;99121.63;;;4.62;76.63
80424;BME280;69765;47.668;19.326;2023-11-19T12:57:40;99114.38;;;4.56;75.78
80424;BME280;69765;47.668;19.326;2023-11-19T13:00:43;99108.16;;;4.53;75.63
80424;BME280;69765;47.668;19.326;2023-11-19T13:03:45;99091.31;;;4.34;75.41
80424;BME280;69765;47.668;19.326;2023-11-19T13:06:48;99086.13;;;4.33;76.45
80424;BME280;69765;47.668;19.326;2023-11-19T13:10:01;99095.09;;;4.29;75.90
80424;BME280;69765;47.668;19.326;2023-11-19T13:13:06;99089.78;;;4.18;75.71
80424;BME280;69765;47.668;19.326;2023-11-19T13:16:08;99080.53;;;4.18;75.77
80424;BME280;69765;47.668;19.326;2023-11-19T13:19:11;99086.84;;;4.13;76.35
80424;BME280;69765;47.668;19.326;2023-11-19T13:22:14;99091.91;;;4.13;75.58
80424;BME280;69765;47.668;19.326;2023-11-19T13:25:16;99089.66;;;4.16;76.72
80424;BME280;69765;47.668;19.326;2023-11-19T13:28:18;99097.06;;;4.23;77.06
80424;BME280;69765;47.668;19.326;2023-11-19T13:31:21;99101.16;;;4.31;78.42
80424;BME280;69765;47.668;19.326;2023-11-19T13:34:24;99111.59;;;4.34;77.08
80424;BME280;69765;47.668;19.326;2023-11-19T13:37:27;99119.53;;;4.29;77.64
80424;BME280;69765;47.668;19.326;2023-11-19T13:40:30;99095.28;;;4.22;77.08
80424;BME280;69765;47.668;19.326;2023-11-19T13:43:32;99095.16;;;4.21;79.63
80424;BME280;69765;47.668;19.326;2023-11-19T13:46:34;99116.31;;;4.21;80.96
80424;BME280;69765;47.668;19.326;2023-11-19T13:49:37;99117.41;;;4.33;76.97
80424;BME280;69765;47.668;19.326;2023-11-19T13:52:41;99115.13;;;4.36;77.63
80424;BME280;69765;47.668;19.326;2023-11-19T13:55:45;99100.91;;;4.28;79.35
80424;BME280;69765;47.668;19.326;2023-11-19T13:58:48;99098.84;;;4.24;79.33
80424;BME280;69765;47.668;19.326;2023-11-19T14:01:50;99096.84;;;4.30;79.47
80424;BME280;69765;47.668;19.326;2023-11-19T14:04:53;99090.63;;;4.27;79.86
80424;BME280;69765;47.668;19.326;2023-11-19T14:07:55;99078.09;;;4.28;82.17
80424;BME280;69765;47.668;19.326;2023-11-19T14:10:58;99070.69;;;4.21;82.98
80424;BME280;69765;47.668;19.326;2023-11-19T14:14:01;99073.69;;;4.17;81.00
80424;BME280;69765;47.668;19.326;2023-11-19T14:17:03;99084.78;;;4.09;85.96
80424;BME280;69765;47.668;19.326;2023-11-19T14:20:09;99084.88;;;4.19;82.55
80424;BME280;69765;47.668;19.326;2023-11-19T14:23:15;99091.19;;;4.14;83.95
80424;BME280;69765;47.668;19.326;2023-11-19T14:26:17;99083.84;;;4.17;82.68
80424;BME280;69765;47.668;19.326;2023-11-19T14:29:19;99077.34;;;4.10;81.97
80424;BME280;69765;47.668;19.326;2023-11-19T14:32:22;99066.56;;;4.13;81.81
80424;BME280;69765;47.668;19.326;2023-11-19T14:35:26;99065.97;;;3.97;83.26
80424;BME280;69765;47.668;19.326;2023-11-19T14:38:28;99070.16;;;3.96;82.80
80424;BME280;69765;47.668;19.326;2023-11-19T14:41:31;99062.19;;;4.02;88.17
80424;BME280;69765;47.668;19.326;2023-11-19T14:44:33;99073.16;;;4.11;85.77
80424;BME280;69765;47.668;19.326;2023-11-19T14:47:36;99070.41;;;4.18;85.64
80424;BME280;69765;47.668;19.326;2023-11-19T14:50:41;99078.16;;;4.20;84.14
80424;BME280;69765;47.668;19.326;2023-11-19T14:53:43;99066.38;;;4.20;85.85
80424;BME280;69765;47.668;19.326;2023-11-19T14:56:47;99082.94;;;4.17;84.52
80424;BME280;69765;47.668;19.326;2023-11-19T14:59:49;99080.06;;;4.22;83.23
80424;BME280;69765;47.668;19.326;2023-11-19T15:02:52;99070.91;;;4.14;84.33
80424;BME280;69765;47.668;19.326;2023-11-19T15:05:56;99076.22;;;4.17;87.06
80424;BME280;69765;47.668;19.326;2023-11-19T15:09:00;99086.91;;;4.23;86.79
80424;BME280;69765;47.668;19.326;2023-11-19T15:12:04;99081.31;;;4.17;86.55
80424;BME280;69765;47.668;19.326;2023-11-19T15:15:10;99073.34;;;4.23;86.01
80424;BME280;69765;47.668;19.326;2023-11-19T15:18:15;99076.75;;;4.23;84.27
80424;BME280;69765;47.668;19.326;2023-11-19T15:21:19;99065.91;;;4.24;87.60
80424;BME280;69765;47.668;19.326;2023-11-19T15:24:21;99086.44;;;4.27;86.64
80424;BME280;69765;47.668;19.326;2023-11-19T15:27:23;99087.13;;;4.16;89.38
80424;BME280;69765;47.668;19.326;2023-11-19T15:30:26;99076.09;;;4.16;89.35
80424;BME280;69765;47.668;19.326;2023-11-19T15:33:28;99084.25;;;4.22;88.55
80424;BME280;69765;47.668;19.326;2023-11-19T15:36:31;99082.88;;;4.25;89.34
80424;BME280;69765;47.668;19.326;2023-11-19T15:39:35;99081.34;;;4.27;86.25
80424;BME280;69765;47.668;19.326;2023-11-19T15:42:39;99071.50;;;4.12;85.99
80424;BME280;69765;47.668;19.326;2023-11-19T15:45:49;99056.72;;;4.16;85.37
80424;BME280;69765;47.668;19.326;2023-11-19T15:48:51;99052.81;;;4.20;84.83
80424;BME280;69765;47.668;19.326;2023-11-19T15:51:53;99062.78;;;4.18;86.62
80424;BME280;69765;47.668;19.326;2023-11-19T15:54:59;99068.03;;;4.20;85.94
80424;BME280;69765;47.668;19.326;2023-11-19T15:58:01;99069.94;;;4.22;84.76
80424;BME280;69765;47.668;19.326;2023-11-19T16:01:04;99073.63;;;4.07;85.64
80424;BME280;69765;47.668;19.326;2023-11-19T16:04:07;99072.13;;;4.09;86.22
80424;BME280;69765;47.668;19.326;2023-11-19T16:07:11;99072.53;;;4.14;87.68
80424;BME280;69765;47.668;19.326;2023-11-19T16:10:14;99058.38;;;4.16;86.28
80424;BME280;69765;47.668;19.326;2023-11-19T16:13:16;99067.63;;;4.15;86.66
80424;BME280;69765;47.668;19.326;2023-11-19T16:16:19;99068.50;;;4.16;85.91
80424;BME280;69765;47.668;19.326;2023-11-19T16:19:21;99077.88;;;4.35;86.55
80424;BME280;69765;47.668;19.326;2023-11-19T16:22:23;99078.69;;;4.26;86.88
80424;BME280;69765;47.668;19.326;2023-11-19T16:25:27;99081.59;;;4.20;88.55
80424;BME280;69765;47.668;19.326;2023-11-19T16:28:30;99082.06;;;4.16;90.06
80424;BME280;69765;47.668;19.326;2023-11-19T16:31:32;99075.34;;;4.17;94.54